createdAt,value
2018-06-13T00:00:46.059Z,0.00
2018-06-13T00:01:46.025Z,0.00
2018-06-13T00:02:45.990Z,0.00
2018-06-13T00:03:45.936Z,0.00
2018-06-13T00:04:45.902Z,0.00
2018-06-13T00:05:45.872Z,0.00
2018-06-13T00:06:45.859Z,0.00
2018-06-13T00:07:45.806Z,0.00
2018-06-13T00:08:45.790Z,0.00
2018-06-13T00:09:45.723Z,0.00
2018-06-13T00:10:45.707Z,0.00
2018-06-13T00:11:45.753Z,0.00
2018-06-13T00:12:45.636Z,0.00
2018-06-13T00:13:45.622Z,0.00
2018-06-13T00:14:45.561Z,0.00
2018-06-13T00:15:45.540Z,0.00
2018-06-13T00:16:45.498Z,0.00
2018-06-13T00:17:45.473Z,0.00
2018-06-13T00:18:45.421Z,0.00
2018-06-13T00:19:45.413Z,0.00
2018-06-13T00:20:45.370Z,0.00
2018-06-13T00:21:45.328Z,0.00
2018-06-13T00:22:45.276Z,0.00
2018-06-13T00:23:45.287Z,0.00
2018-06-13T00:24:45.235Z,0.00
2018-06-13T00:25:45.198Z,0.00
2018-06-13T00:26:45.145Z,0.00
2018-06-13T00:27:45.114Z,0.00
2018-06-13T00:28:45.096Z,0.00
2018-06-13T00:29:45.102Z,0.00
2018-06-13T00:30:45.031Z,0.00
2018-06-13T00:31:44.984Z,0.00
2018-06-13T00:32:44.955Z,0.00
2018-06-13T00:33:44.920Z,0.00
2018-06-13T00:34:44.876Z,0.00
2018-06-13T00:35:44.832Z,0.00
2018-06-13T00:36:44.938Z,0.00
2018-06-13T00:37:44.763Z,0.00
2018-06-13T00:38:44.744Z,0.00
2018-06-13T00:39:44.838Z,0.00
2018-06-13T00:40:44.682Z,0.00
2018-06-13T00:41:44.646Z,0.00
2018-06-13T00:42:44.611Z,0.00
2018-06-13T00:43:44.568Z,0.00
2018-06-13T00:44:44.538Z,0.00
2018-06-13T00:45:44.496Z,0.00
2018-06-13T00:46:44.480Z,0.00
2018-06-13T00:47:44.425Z,0.00
2018-06-13T00:48:44.394Z,0.00
2018-06-13T00:49:44.368Z,0.00
2018-06-13T00:50:44.335Z,0.00
2018-06-13T00:51:44.285Z,0.00
2018-06-13T00:52:44.245Z,0.00
2018-06-13T00:53:44.247Z,0.00
2018-06-13T00:54:44.181Z,0.00
2018-06-13T00:55:44.176Z,0.00
2018-06-13T00:56:44.112Z,0.00
2018-06-13T00:57:44.089Z,0.00
2018-06-13T00:58:44.041Z,0.00
2018-06-13T00:59:43.998Z,0.00
2018-06-13T01:00:43.969Z,0.00
2018-06-13T01:01:43.933Z,0.00
2018-06-13T01:02:43.908Z,0.00
2018-06-13T01:03:43.872Z,0.00
2018-06-13T01:04:43.846Z,0.00
2018-06-13T01:05:43.816Z,0.00
2018-06-13T01:06:43.777Z,0.00
2018-06-13T01:07:43.735Z,0.00
2018-06-13T01:08:43.712Z,0.00
2018-06-13T01:09:43.665Z,0.00
2018-06-13T01:10:43.634Z,0.00
2018-06-13T01:11:43.595Z,0.00
2018-06-13T01:12:43.565Z,0.00
2018-06-13T01:13:43.605Z,0.00
2018-06-13T01:14:43.489Z,0.00
2018-06-13T01:15:43.458Z,0.00
2018-06-13T01:16:43.428Z,0.00
2018-06-13T01:17:43.375Z,0.00
2018-06-13T01:18:43.356Z,0.00
2018-06-13T01:19:43.305Z,0.00
2018-06-13T01:20:43.278Z,0.00
2018-06-13T01:21:43.243Z,0.00
2018-06-13T01:22:43.204Z,0.00
2018-06-13T01:23:43.176Z,0.00
2018-06-13T01:24:43.141Z,0.00
2018-06-13T01:25:43.106Z,0.00
2018-06-13T01:26:43.089Z,0.00
2018-06-13T01:27:43.041Z,0.00
2018-06-13T01:28:43.007Z,0.00
2018-06-13T01:29:42.970Z,0.00
2018-06-13T01:30:42.939Z,0.00
2018-06-13T01:31:42.895Z,0.00
2018-06-13T01:32:42.864Z,0.00
2018-06-13T01:33:42.827Z,0.00
2018-06-13T01:34:42.820Z,0.00
2018-06-13T01:35:42.814Z,0.00
2018-06-13T01:36:42.723Z,0.00
2018-06-13T01:37:42.691Z,0.00
2018-06-13T01:38:44.557Z,0.00
2018-06-13T01:39:42.624Z,0.00
2018-06-13T01:40:42.586Z,0.00
2018-06-13T01:41:42.547Z,0.00
2018-06-13T01:42:42.534Z,0.00
2018-06-13T01:43:42.482Z,0.00
2018-06-13T01:44:42.456Z,0.00
2018-06-13T01:45:42.417Z,0.00
2018-06-13T01:46:42.418Z,0.00
2018-06-13T01:47:42.338Z,0.00
2018-06-13T01:48:42.319Z,0.00
2018-06-13T01:49:42.283Z,0.00
2018-06-13T01:50:42.231Z,0.00
2018-06-13T01:51:42.245Z,0.00
2018-06-13T01:52:42.174Z,0.00
2018-06-13T01:53:42.130Z,0.00
2018-06-13T01:54:42.104Z,0.00
2018-06-13T01:55:42.064Z,0.00
2018-06-13T01:56:42.091Z,0.00
2018-06-13T01:57:41.998Z,0.00
2018-06-13T01:58:41.958Z,0.00
2018-06-13T01:59:41.926Z,0.00
2018-06-13T02:00:41.937Z,0.00
2018-06-13T02:01:41.853Z,0.00
2018-06-13T02:02:41.904Z,0.00
2018-06-13T02:03:41.781Z,0.00
2018-06-13T02:04:41.739Z,0.00
2018-06-13T02:05:41.705Z,0.00
2018-06-13T02:06:41.720Z,0.00
2018-06-13T02:07:41.654Z,0.00
2018-06-13T02:08:41.606Z,0.00
2018-06-13T02:09:41.573Z,0.00
2018-06-13T02:10:41.549Z,0.00
2018-06-13T02:11:41.580Z,0.00
2018-06-13T02:12:41.495Z,0.00
2018-06-13T02:13:41.447Z,0.00
2018-06-13T02:14:41.422Z,0.00
2018-06-13T02:15:41.356Z,0.00
2018-06-13T02:16:41.312Z,0.00
2018-06-13T02:17:41.310Z,0.00
2018-06-13T02:18:41.274Z,0.00
2018-06-13T02:19:41.224Z,0.00
2018-06-13T02:20:41.190Z,0.00
2018-06-13T02:21:41.168Z,0.00
2018-06-13T02:22:41.136Z,0.00
2018-06-13T02:23:41.087Z,0.00
2018-06-13T02:24:41.122Z,0.00
2018-06-13T02:25:41.030Z,0.00
2018-06-13T02:26:40.977Z,0.00
2018-06-13T02:27:40.948Z,0.00
2018-06-13T02:28:40.913Z,0.00
2018-06-13T02:29:40.919Z,0.00
2018-06-13T02:30:40.852Z,0.00
2018-06-13T02:31:40.805Z,0.00
2018-06-13T02:32:40.757Z,0.00
2018-06-13T02:33:40.737Z,0.00
2018-06-13T02:34:40.687Z,0.00
2018-06-13T02:35:40.679Z,0.00
2018-06-13T02:36:40.622Z,0.00
2018-06-13T02:37:40.613Z,0.00
2018-06-13T02:38:40.580Z,0.00
2018-06-13T02:39:40.552Z,0.00
2018-06-13T02:40:40.484Z,0.00
2018-06-13T02:41:40.448Z,0.00
2018-06-13T02:42:40.418Z,5.63
2018-06-13T02:43:40.465Z,5.63
2018-06-13T02:44:40.337Z,5.63
2018-06-13T02:45:40.389Z,5.63
2018-06-13T02:46:40.279Z,5.63
2018-06-13T02:47:40.275Z,5.63
2018-06-13T02:48:40.196Z,5.63
2018-06-13T02:49:40.169Z,11.25
2018-06-13T02:50:40.141Z,11.25
2018-06-13T02:51:40.154Z,11.25
2018-06-13T02:52:40.144Z,11.25
2018-06-13T02:53:40.079Z,16.88
2018-06-13T02:54:39.996Z,16.88
2018-06-13T02:55:39.971Z,16.88
2018-06-13T02:56:39.916Z,16.88
2018-06-13T02:57:39.936Z,22.50
2018-06-13T02:58:39.839Z,22.50
2018-06-13T02:59:39.817Z,22.50
2018-06-13T03:00:39.780Z,22.50
2018-06-13T03:01:39.730Z,28.13
2018-06-13T03:02:39.692Z,28.13
2018-06-13T03:03:39.767Z,28.13
2018-06-13T03:04:39.649Z,33.75
2018-06-13T03:05:39.603Z,33.75
2018-06-13T03:06:39.561Z,39.38
2018-06-13T03:07:39.529Z,39.38
2018-06-13T03:08:39.506Z,45.00
2018-06-13T03:09:39.466Z,50.63
2018-06-13T03:10:39.416Z,50.63
2018-06-13T03:11:39.411Z,56.25
2018-06-13T03:12:39.471Z,61.88
2018-06-13T03:13:39.323Z,61.88
2018-06-13T03:14:39.267Z,61.88
2018-06-13T03:15:39.255Z,61.88
2018-06-13T03:16:39.249Z,61.88
2018-06-13T03:17:39.164Z,61.88
2018-06-13T03:18:39.221Z,56.25
2018-06-13T03:19:39.116Z,56.25
2018-06-13T03:20:39.071Z,50.63
2018-06-13T03:21:39.024Z,45.00
2018-06-13T03:22:39.058Z,45.00
2018-06-13T03:23:38.957Z,39.38
2018-06-13T03:24:38.924Z,39.38
2018-06-13T03:25:38.879Z,39.38
2018-06-13T03:26:38.877Z,39.38
2018-06-13T03:27:38.809Z,39.38
2018-06-13T03:28:38.788Z,39.38
2018-06-13T03:29:38.741Z,39.38
2018-06-13T03:30:38.708Z,39.38
2018-06-13T03:31:38.665Z,39.38
2018-06-13T03:32:38.677Z,45.00
2018-06-13T03:33:38.602Z,45.00
2018-06-13T03:34:38.582Z,45.00
2018-06-13T03:35:38.550Z,50.63
2018-06-13T03:36:38.583Z,50.63
2018-06-13T03:37:38.719Z,50.63
2018-06-13T03:38:38.444Z,56.25
2018-06-13T03:39:38.426Z,56.25
2018-06-13T03:40:40.126Z,56.25
2018-06-13T03:41:38.320Z,61.88
2018-06-13T03:42:38.292Z,67.50
2018-06-13T03:43:38.247Z,67.50
2018-06-13T03:44:38.210Z,73.13
2018-06-13T03:45:38.207Z,78.75
2018-06-13T03:46:38.137Z,84.38
2018-06-13T03:47:38.130Z,84.38
2018-06-13T03:48:38.085Z,90.00
2018-06-13T03:49:38.028Z,90.00
2018-06-13T03:50:37.986Z,95.63
2018-06-13T03:51:37.985Z,101.25
2018-06-13T03:52:37.988Z,101.25
2018-06-13T03:53:37.881Z,101.25
2018-06-13T03:54:37.887Z,95.63
2018-06-13T03:55:37.818Z,90.00
2018-06-13T03:56:37.811Z,78.75
2018-06-13T03:57:37.748Z,78.75
2018-06-13T03:58:37.733Z,78.75
2018-06-13T03:59:37.684Z,73.13
2018-06-13T04:00:37.646Z,67.50
2018-06-13T04:01:37.631Z,67.50
2018-06-13T04:02:37.620Z,61.88
2018-06-13T04:03:37.630Z,61.88
2018-06-13T04:04:37.550Z,67.50
2018-06-13T04:05:37.462Z,67.50
2018-06-13T04:06:37.432Z,73.13
2018-06-13T04:07:37.415Z,73.13
2018-06-13T04:08:37.355Z,78.75
2018-06-13T04:09:37.323Z,84.38
2018-06-13T04:10:37.305Z,90.00
2018-06-13T04:11:37.278Z,90.00
2018-06-13T04:12:37.210Z,95.63
2018-06-13T04:13:37.287Z,101.25
2018-06-13T04:14:37.157Z,106.88
2018-06-13T04:15:37.119Z,106.88
2018-06-13T04:16:37.112Z,112.50
2018-06-13T04:17:37.076Z,112.50
2018-06-13T04:18:37.074Z,118.13
2018-06-13T04:19:37.082Z,118.13
2018-06-13T04:20:36.925Z,118.13
2018-06-13T04:21:36.917Z,112.50
2018-06-13T04:22:36.862Z,112.50
2018-06-13T04:23:36.836Z,106.88
2018-06-13T04:24:36.792Z,101.25
2018-06-13T04:25:36.750Z,95.63
2018-06-13T04:26:36.751Z,95.63
2018-06-13T04:27:36.698Z,90.00
2018-06-13T04:28:36.648Z,90.00
2018-06-13T04:29:36.622Z,90.00
2018-06-13T04:30:36.582Z,90.00
2018-06-13T04:31:36.562Z,95.63
2018-06-13T04:32:36.543Z,95.63
2018-06-13T04:33:36.484Z,95.63
2018-06-13T04:34:36.431Z,101.25
2018-06-13T04:35:36.403Z,101.25
2018-06-13T04:36:36.414Z,101.25
2018-06-13T04:37:36.370Z,106.88
2018-06-13T04:38:36.338Z,106.88
2018-06-13T04:39:36.282Z,112.50
2018-06-13T04:40:36.244Z,112.50
2018-06-13T04:41:36.228Z,112.50
2018-06-13T04:42:36.181Z,112.50
2018-06-13T04:43:36.114Z,112.50
2018-06-13T04:44:36.093Z,112.50
2018-06-13T04:45:36.043Z,112.50
2018-06-13T04:46:36.039Z,112.50
2018-06-13T04:47:35.995Z,118.13
2018-06-13T04:48:35.941Z,118.13
2018-06-13T04:49:35.934Z,123.75
2018-06-13T04:50:35.892Z,123.75
2018-06-13T04:51:35.876Z,129.38
2018-06-13T04:52:35.824Z,135.00
2018-06-13T04:53:35.885Z,146.25
2018-06-13T04:54:35.744Z,151.88
2018-06-13T04:55:35.719Z,163.13
2018-06-13T04:56:35.672Z,174.38
2018-06-13T04:57:35.616Z,185.63
2018-06-13T04:58:35.591Z,196.88
2018-06-13T04:59:35.554Z,208.13
2018-06-13T05:00:35.521Z,219.38
2018-06-13T05:01:35.480Z,230.63
2018-06-13T05:02:35.453Z,236.25
2018-06-13T05:03:35.413Z,236.25
2018-06-13T05:04:35.372Z,230.63
2018-06-13T05:05:35.422Z,225.00
2018-06-13T05:06:35.340Z,213.75
2018-06-13T05:07:35.260Z,202.50
2018-06-13T05:08:35.249Z,191.25
2018-06-13T05:09:35.211Z,180.00
2018-06-13T05:10:35.172Z,174.38
2018-06-13T05:11:35.123Z,174.38
2018-06-13T05:12:35.158Z,174.38
2018-06-13T05:13:35.070Z,174.38
2018-06-13T05:14:35.031Z,180.00
2018-06-13T05:15:35.044Z,180.00
2018-06-13T05:16:35.102Z,185.63
2018-06-13T05:17:34.944Z,196.88
2018-06-13T05:18:34.872Z,208.13
2018-06-13T05:19:34.875Z,225.00
2018-06-13T05:20:34.820Z,236.25
2018-06-13T05:21:34.791Z,247.50
2018-06-13T05:22:34.736Z,253.13
2018-06-13T05:23:34.693Z,264.38
2018-06-13T05:24:34.692Z,275.63
2018-06-13T05:25:34.637Z,286.88
2018-06-13T05:26:34.616Z,298.13
2018-06-13T05:27:34.566Z,303.75
2018-06-13T05:28:34.600Z,303.75
2018-06-13T05:29:34.486Z,303.75
2018-06-13T05:30:34.449Z,298.13
2018-06-13T05:31:34.443Z,286.88
2018-06-13T05:32:34.389Z,281.25
2018-06-13T05:33:34.354Z,275.63
2018-06-13T05:34:34.360Z,281.25
2018-06-13T05:35:34.352Z,286.88
2018-06-13T05:36:34.252Z,298.13
2018-06-13T05:37:34.207Z,309.38
2018-06-13T05:38:34.184Z,326.25
2018-06-13T05:39:34.177Z,343.13
2018-06-13T05:40:34.231Z,360.00
2018-06-13T05:41:34.047Z,376.88
2018-06-13T05:42:34.045Z,405.00
2018-06-13T05:43:34.113Z,421.88
2018-06-13T05:44:33.959Z,444.38
2018-06-13T05:45:34.008Z,466.88
2018-06-13T05:46:33.949Z,478.13
2018-06-13T05:47:33.877Z,483.75
2018-06-13T05:48:33.836Z,489.38
2018-06-13T05:49:33.757Z,506.25
2018-06-13T05:50:33.747Z,528.75
2018-06-13T05:51:33.801Z,556.88
2018-06-13T05:52:33.708Z,585.00
2018-06-13T05:53:33.689Z,624.38
2018-06-13T05:54:33.592Z,686.25
2018-06-13T05:55:33.683Z,742.50
2018-06-13T05:56:33.656Z,781.88
2018-06-13T05:57:33.520Z,787.50
2018-06-13T05:58:33.557Z,759.38
2018-06-13T05:59:33.438Z,720.00
2018-06-13T06:00:33.416Z,691.88
2018-06-13T06:01:33.467Z,680.63
2018-06-13T06:02:33.410Z,663.75
2018-06-13T06:03:33.304Z,635.63
2018-06-13T06:04:33.309Z,607.50
2018-06-13T06:05:33.208Z,585.00
2018-06-13T06:06:33.179Z,562.50
2018-06-13T06:07:33.217Z,551.25
2018-06-13T06:08:33.102Z,551.25
2018-06-13T06:09:33.152Z,556.88
2018-06-13T06:10:33.173Z,573.75
2018-06-13T06:11:33.065Z,607.50
2018-06-13T06:12:32.954Z,646.88
2018-06-13T06:13:32.951Z,691.88
2018-06-13T06:14:32.938Z,731.25
2018-06-13T06:15:32.972Z,759.38
2018-06-13T06:16:32.927Z,753.75
2018-06-13T06:17:32.833Z,742.50
2018-06-13T06:18:32.786Z,731.25
2018-06-13T06:19:32.793Z,731.25
2018-06-13T06:20:32.672Z,720.00
2018-06-13T06:21:32.651Z,708.75
2018-06-13T06:22:32.592Z,703.13
2018-06-13T06:23:32.628Z,708.75
2018-06-13T06:24:32.528Z,725.63
2018-06-13T06:25:32.496Z,736.88
2018-06-13T06:26:32.463Z,742.50
2018-06-13T06:27:32.438Z,742.50
2018-06-13T06:28:32.390Z,725.63
2018-06-13T06:29:32.418Z,708.75
2018-06-13T06:30:32.337Z,691.88
2018-06-13T06:31:32.297Z,663.75
2018-06-13T06:32:32.296Z,646.88
2018-06-13T06:33:32.216Z,635.63
2018-06-13T06:34:32.169Z,630.00
2018-06-13T06:35:32.169Z,635.63
2018-06-13T06:36:32.125Z,646.88
2018-06-13T06:37:32.164Z,663.75
2018-06-13T06:38:32.052Z,675.00
2018-06-13T06:39:32.106Z,680.63
2018-06-13T06:40:32.045Z,697.50
2018-06-13T06:41:31.946Z,720.00
2018-06-13T06:42:31.906Z,742.50
2018-06-13T06:43:31.949Z,765.00
2018-06-13T06:44:31.827Z,776.25
2018-06-13T06:45:31.825Z,781.88
2018-06-13T06:46:31.774Z,798.75
2018-06-13T06:47:31.744Z,832.50
2018-06-13T06:48:31.704Z,849.38
2018-06-13T06:49:31.668Z,860.63
2018-06-13T06:50:31.641Z,860.63
2018-06-13T06:51:31.616Z,866.25
2018-06-13T06:52:31.626Z,883.13
2018-06-13T06:53:31.570Z,905.63
2018-06-13T06:54:32.044Z,928.13
2018-06-13T06:55:31.618Z,945.00
2018-06-13T06:56:31.431Z,950.63
2018-06-13T06:57:31.386Z,922.50
2018-06-13T06:58:31.371Z,894.38
2018-06-13T06:59:31.330Z,860.63
2018-06-13T07:00:31.292Z,826.88
2018-06-13T07:01:31.253Z,815.63
2018-06-13T07:02:31.224Z,815.63
2018-06-13T07:03:31.192Z,832.50
2018-06-13T07:04:31.302Z,866.25
2018-06-13T07:05:31.140Z,871.88
2018-06-13T07:06:31.102Z,860.63
2018-06-13T07:07:31.049Z,843.75
2018-06-13T07:08:31.014Z,815.63
2018-06-13T07:09:30.968Z,798.75
2018-06-13T07:10:30.965Z,804.38
2018-06-13T07:11:30.911Z,826.88
2018-06-13T07:12:30.876Z,871.88
2018-06-13T07:13:30.846Z,911.25
2018-06-13T07:14:30.798Z,933.75
2018-06-13T07:15:30.849Z,933.75
2018-06-13T07:16:30.731Z,905.63
2018-06-13T07:17:30.693Z,883.13
2018-06-13T07:18:30.721Z,866.25
2018-06-13T07:19:30.671Z,866.25
2018-06-13T07:20:30.620Z,883.13
2018-06-13T07:21:30.571Z,928.13
2018-06-13T07:22:30.557Z,967.50
2018-06-13T07:23:30.500Z,1012.50
2018-06-13T07:24:30.466Z,1029.38
2018-06-13T07:25:30.471Z,1035.00
2018-06-13T07:26:30.442Z,1051.88
2018-06-13T07:27:30.362Z,1091.25
2018-06-13T07:28:30.380Z,1153.13
2018-06-13T07:29:30.328Z,1186.88
2018-06-13T07:30:30.273Z,1220.63
2018-06-13T07:31:30.234Z,1248.75
2018-06-13T07:32:30.204Z,1282.50
2018-06-13T07:33:30.175Z,1293.75
2018-06-13T07:34:30.140Z,1305.00
2018-06-13T07:35:30.087Z,1305.00
2018-06-13T07:36:30.058Z,1316.25
2018-06-13T07:37:30.055Z,1310.63
2018-06-13T07:38:30.045Z,1254.38
2018-06-13T07:39:29.962Z,1192.50
2018-06-13T07:40:29.959Z,1141.88
2018-06-13T07:41:29.972Z,1125.00
2018-06-13T07:42:29.893Z,1130.63
2018-06-13T07:43:29.832Z,1147.50
2018-06-13T07:44:29.774Z,1186.88
2018-06-13T07:45:29.841Z,1215.00
2018-06-13T07:46:29.718Z,1186.88
2018-06-13T07:47:29.677Z,1147.50
2018-06-13T07:48:29.683Z,1085.63
2018-06-13T07:49:29.689Z,1006.88
2018-06-13T07:50:29.580Z,928.13
2018-06-13T07:51:29.603Z,883.13
2018-06-13T07:52:29.557Z,866.25
2018-06-13T07:53:29.586Z,855.00
2018-06-13T07:54:29.491Z,849.38
2018-06-13T07:55:29.468Z,821.25
2018-06-13T07:56:29.379Z,798.75
2018-06-13T07:57:29.357Z,787.50
2018-06-13T10:40:35.132Z,2025.00
2018-06-13T10:41:33.614Z,2143.13
2018-06-13T10:43:27.548Z,2390.63
2018-06-13T10:44:26.639Z,2486.25
2018-06-13T10:46:20.832Z,2649.38
2018-06-13T10:47:19.693Z,2700.00
2018-06-13T10:49:13.689Z,2570.63
2018-06-13T10:50:12.675Z,4393.13
2018-06-13T10:52:06.648Z,2396.25
2018-06-13T10:53:06.682Z,2458.13
2018-06-13T10:54:59.992Z,2216.25
2018-06-13T10:55:59.744Z,2160.00
2018-06-13T10:57:52.314Z,2188.13
2018-06-13T10:58:51.955Z,2210.63
2018-06-13T11:00:45.933Z,2193.75
2018-06-13T11:01:45.050Z,2182.50
2018-06-13T11:03:39.480Z,2160.00
2018-06-13T11:04:38.957Z,2210.63
2018-06-13T11:06:32.031Z,2221.88
2018-06-13T11:07:31.959Z,2120.63
2018-06-13T11:09:26.028Z,2210.63
2018-06-13T11:10:24.168Z,1501.88
2018-06-13T11:12:18.668Z,1254.38
2018-06-13T11:13:18.044Z,1186.88
2018-06-13T11:15:10.701Z,1147.50
2018-06-13T11:16:10.269Z,1141.88
2018-06-13T11:18:03.744Z,1108.13
2018-06-13T11:19:03.332Z,1063.13
2018-06-13T11:20:57.223Z,1001.25
2018-06-13T11:21:56.634Z,978.75
2018-06-13T11:23:50.859Z,928.13
2018-06-13T11:24:49.395Z,933.75
2018-06-13T11:26:44.509Z,1074.38
2018-06-13T11:27:42.613Z,1198.13
2018-06-13T11:29:37.050Z,1417.50
2018-06-13T11:30:35.538Z,1507.50
2018-06-13T11:32:29.619Z,1636.88
2018-06-13T11:33:29.518Z,1715.63
2018-06-13T11:35:21.997Z,1884.38
2018-06-13T11:36:21.630Z,1946.25
2018-06-13T11:38:16.201Z,1991.25
2018-06-13T11:39:14.765Z,1940.63
2018-06-13T11:41:08.719Z,1884.38
2018-06-13T11:42:07.832Z,1861.88
2018-06-13T11:44:02.467Z,1850.63
2018-06-13T11:45:00.785Z,1867.50
2018-06-13T11:46:55.033Z,1912.50
2018-06-13T11:47:53.868Z,1974.38
2018-06-13T11:49:47.403Z,2070.00
2018-06-13T11:50:46.942Z,2120.63
2018-06-13T11:52:41.966Z,2205.00
2018-06-13T11:53:41.626Z,2244.38
2018-06-13T11:55:36.054Z,2227.50
2018-06-13T11:56:36.223Z,2188.13
2018-06-13T11:58:28.551Z,2143.13
2018-06-13T11:59:27.799Z,2148.75
2018-06-13T12:01:22.208Z,2216.25
2018-06-13T12:02:22.670Z,2289.38
2018-06-13T12:04:15.228Z,2306.25
2018-06-13T12:05:13.730Z,2323.13
2018-06-13T12:07:07.957Z,2317.50
2018-06-13T12:08:06.876Z,2295.00
2018-06-13T12:10:01.007Z,2300.63
2018-06-13T12:11:00.164Z,2143.13
2018-06-13T12:12:54.374Z,1974.38
2018-06-13T12:13:53.332Z,1873.13
2018-06-13T12:15:48.051Z,1670.63
2018-06-13T12:16:47.647Z,1575.00
2018-06-13T12:18:40.187Z,1333.13
2018-06-13T12:19:40.164Z,1147.50
2018-06-13T12:21:32.995Z,877.50
2018-06-13T12:22:32.286Z,826.88
2018-06-13T12:24:26.157Z,838.13
2018-06-13T12:25:25.284Z,855.00
2018-06-13T12:27:19.876Z,871.88
2018-06-13T12:28:18.592Z,888.75
2018-06-13T12:30:12.873Z,883.13
2018-06-13T12:31:11.279Z,883.13
2018-06-13T12:33:04.771Z,900.00
2018-06-13T12:34:06.273Z,911.25
2018-06-13T12:35:58.482Z,956.25
2018-06-13T12:36:57.463Z,1012.50
2018-06-13T12:38:51.826Z,1186.88
2018-06-13T12:39:51.064Z,1305.00
2018-06-13T12:41:45.142Z,1541.25
2018-06-13T12:42:44.341Z,1636.88
2018-06-13T12:44:37.974Z,1743.75
2018-06-13T12:45:37.472Z,1755.00
2018-06-13T12:47:30.510Z,1783.13
2018-06-13T12:48:30.494Z,1828.13
2018-06-13T12:50:25.652Z,2013.75
2018-06-13T12:51:24.791Z,2160.00
2018-06-13T12:52:25.077Z,2306.25
2018-06-13T12:53:24.707Z,2430.00
2018-06-13T12:54:24.549Z,2486.25
2018-06-13T12:55:24.562Z,2491.88
2018-06-13T12:56:24.834Z,2491.88
2018-06-13T12:57:24.878Z,2475.00
2018-06-13T12:58:25.823Z,2446.88
2018-06-13T12:59:25.879Z,2356.88
2018-06-13T13:00:24.477Z,2199.38
2018-06-13T13:01:25.819Z,1991.25
2018-06-13T13:02:25.815Z,1743.75
2018-06-13T13:03:26.255Z,1535.63
2018-06-13T13:04:25.191Z,1366.88
2018-06-13T13:05:26.211Z,1276.88
2018-06-13T13:06:26.127Z,1231.88
2018-06-13T13:07:25.126Z,1209.38
2018-06-13T13:08:25.021Z,1186.88
2018-06-13T13:09:26.088Z,1147.50
2018-06-13T13:10:24.102Z,1113.75
2018-06-13T13:11:24.427Z,1085.63
2018-06-13T13:12:24.428Z,1051.88
2018-06-13T13:13:25.813Z,995.63
2018-06-13T13:14:24.284Z,933.75
2018-06-13T13:15:25.841Z,883.13
2018-06-13T13:16:24.288Z,838.13
2018-06-13T13:17:24.781Z,815.63
2018-06-13T13:18:24.738Z,798.75
2018-06-13T13:19:24.011Z,781.88
2018-06-13T13:20:24.857Z,770.63
2018-06-13T13:21:23.795Z,765.00
2018-06-13T13:22:23.637Z,765.00
2018-06-13T13:23:23.684Z,765.00
2018-06-13T13:24:23.573Z,776.25
2018-06-13T13:25:23.554Z,793.13
2018-06-13T13:26:23.501Z,826.88
2018-06-13T13:27:23.480Z,860.63
2018-06-13T13:28:23.448Z,883.13
2018-06-13T13:29:23.404Z,916.88
2018-06-13T13:30:23.374Z,961.88
2018-06-13T13:31:23.365Z,1006.88
2018-06-13T13:32:23.321Z,1068.75
2018-06-13T13:33:23.285Z,1130.63
2018-06-13T13:34:23.271Z,1192.50
2018-06-13T13:35:23.211Z,1231.88
2018-06-13T13:36:23.207Z,1271.25
2018-06-13T13:37:23.145Z,1299.38
2018-06-13T13:38:23.121Z,1316.25
2018-06-13T13:39:23.100Z,1271.25
2018-06-13T13:40:23.052Z,1175.63
2018-06-13T13:41:23.032Z,1057.50
2018-06-13T13:42:22.989Z,911.25
2018-06-13T13:43:22.961Z,821.25
2018-06-13T13:44:22.931Z,748.13
2018-06-13T13:45:22.975Z,697.50
2018-06-13T13:46:22.876Z,652.50
2018-06-13T13:47:22.830Z,635.63
2018-06-13T13:48:22.792Z,646.88
2018-06-13T13:49:22.770Z,680.63
2018-06-13T13:50:22.749Z,720.00
2018-06-13T13:51:22.712Z,765.00
2018-06-13T13:52:22.684Z,815.63
2018-06-13T13:53:22.650Z,849.38
2018-06-13T13:54:22.610Z,866.25
2018-06-13T13:55:22.609Z,871.88
2018-06-13T13:56:22.561Z,843.75
2018-06-13T13:57:22.578Z,781.88
2018-06-13T13:58:22.502Z,736.88
2018-06-13T13:59:22.448Z,697.50
2018-06-13T14:00:22.420Z,669.38
2018-06-13T14:01:22.391Z,658.13
2018-06-13T14:02:22.369Z,652.50
2018-06-13T14:03:22.321Z,652.50
2018-06-13T14:04:22.305Z,663.75
2018-06-13T14:05:22.297Z,675.00
2018-06-13T14:06:22.228Z,697.50
2018-06-13T14:07:22.212Z,703.13
2018-06-13T14:08:22.173Z,708.75
2018-06-13T14:09:22.134Z,708.75
2018-06-13T14:10:22.134Z,686.25
2018-06-13T14:11:22.055Z,658.13
2018-06-13T14:12:22.095Z,618.75
2018-06-13T14:13:22.023Z,590.63
2018-06-13T14:14:21.983Z,568.13
2018-06-13T14:15:21.944Z,568.13
2018-06-13T14:16:21.978Z,585.00
2018-06-13T14:17:21.867Z,607.50
2018-06-13T14:18:21.858Z,635.63
2018-06-13T14:19:21.821Z,652.50
2018-06-13T14:20:21.781Z,680.63
2018-06-13T14:21:21.735Z,731.25
2018-06-13T14:22:21.830Z,781.88
2018-06-13T14:23:21.708Z,838.13
2018-06-13T14:24:21.644Z,888.75
2018-06-13T14:25:21.657Z,922.50
2018-06-13T14:26:21.645Z,933.75
2018-06-13T14:27:21.545Z,933.75
2018-06-13T14:28:21.512Z,916.88
2018-06-13T14:29:21.512Z,900.00
2018-06-13T14:30:21.464Z,871.88
2018-06-13T14:31:21.435Z,849.38
2018-06-13T14:32:21.422Z,826.88
2018-06-13T14:33:21.344Z,810.00
2018-06-13T14:34:21.339Z,798.75
2018-06-13T14:35:21.295Z,787.50
2018-06-13T14:36:21.348Z,770.63
2018-06-13T14:37:21.285Z,748.13
2018-06-13T14:38:21.190Z,731.25
2018-06-13T14:39:21.155Z,703.13
2018-06-13T14:40:21.160Z,658.13
2018-06-13T14:41:21.093Z,601.88
2018-06-13T14:42:21.079Z,568.13
2018-06-13T14:43:21.033Z,562.50
2018-06-13T14:44:21.039Z,573.75
2018-06-13T14:45:20.951Z,596.25
2018-06-13T14:46:20.929Z,635.63
2018-06-13T14:47:20.927Z,697.50
2018-06-13T14:48:20.870Z,753.75
2018-06-13T14:49:20.829Z,798.75
2018-06-13T14:50:20.805Z,810.00
2018-06-13T14:51:20.769Z,787.50
2018-06-13T14:52:20.740Z,759.38
2018-06-13T14:53:20.687Z,725.63
2018-06-13T14:54:20.689Z,691.88
2018-06-13T14:55:20.636Z,658.13
2018-06-13T14:56:20.595Z,630.00
2018-06-13T14:57:20.587Z,624.38
2018-06-13T14:58:20.549Z,635.63
2018-06-13T14:59:20.504Z,641.25
2018-06-13T15:00:20.988Z,669.38
2018-06-13T15:01:20.457Z,697.50
2018-06-13T15:02:20.431Z,720.00
2018-06-13T15:03:20.401Z,748.13
2018-06-13T15:04:20.370Z,765.00
2018-06-13T15:05:20.309Z,787.50
2018-06-13T15:06:20.269Z,787.50
2018-06-13T15:07:20.288Z,804.38
2018-06-13T15:08:20.410Z,815.63
2018-06-13T15:09:20.181Z,821.25
2018-06-13T15:10:20.154Z,815.63
2018-06-13T15:11:20.119Z,804.38
2018-06-13T15:12:20.135Z,798.75
2018-06-13T15:13:20.078Z,793.13
2018-06-13T15:14:20.008Z,798.75
2018-06-13T15:15:19.987Z,804.38
2018-06-13T15:16:20.165Z,815.63
2018-06-13T15:17:19.930Z,838.13
2018-06-13T15:18:19.921Z,866.25
2018-06-13T15:19:19.875Z,888.75
2018-06-13T15:20:19.884Z,905.63
2018-06-13T15:21:19.818Z,905.63
2018-06-13T15:22:19.814Z,888.75
2018-06-13T15:23:19.737Z,877.50
2018-06-13T15:24:19.698Z,883.13
2018-06-13T15:25:19.723Z,900.00
2018-06-13T15:26:19.711Z,911.25
2018-06-13T15:27:19.600Z,911.25
2018-06-13T15:28:19.564Z,916.88
2018-06-13T15:29:19.547Z,916.88
2018-06-13T15:30:19.482Z,916.88
2018-06-13T15:31:19.553Z,916.88
2018-06-13T15:32:19.457Z,894.38
2018-06-13T15:33:19.474Z,855.00
2018-06-13T15:34:19.371Z,815.63
2018-06-13T15:35:19.362Z,798.75
2018-06-13T15:36:19.308Z,787.50
2018-06-13T15:37:19.294Z,765.00
2018-06-13T15:38:19.241Z,720.00
2018-06-13T15:39:19.200Z,686.25
2018-06-13T15:40:19.149Z,669.38
2018-06-13T15:41:19.173Z,663.75
2018-06-13T15:42:19.373Z,669.38
2018-06-13T15:43:19.068Z,669.38
2018-06-13T15:44:19.056Z,686.25
2018-06-13T15:45:19.099Z,720.00
2018-06-13T15:46:18.980Z,731.25
2018-06-13T15:47:18.934Z,736.88
2018-06-13T15:48:19.394Z,736.88
2018-06-13T15:49:18.889Z,742.50
2018-06-13T15:50:18.959Z,753.75
2018-06-13T15:51:18.851Z,753.75
2018-06-13T15:52:18.763Z,753.75
2018-06-13T15:53:18.727Z,748.13
2018-06-13T15:54:18.683Z,731.25
2018-06-13T15:55:18.651Z,725.63
2018-06-13T15:56:18.642Z,714.38
2018-06-13T15:57:18.609Z,703.13
2018-06-13T15:58:18.559Z,691.88
2018-06-13T15:59:18.558Z,691.88